createdAt,value
2023-04-14T00:02:13.787Z,7.32
2023-04-14T00:05:22.503Z,7.30
2023-04-14T00:08:29.106Z,7.29
2023-04-14T00:11:34.604Z,7.26
2023-04-14T00:14:43.420Z,7.23
2023-04-14T00:17:49.403Z,7.21
2023-04-14T00:20:58.689Z,7.21
2023-04-14T00:24:04.143Z,7.19
2023-04-14T00:27:10.496Z,7.19
2023-04-14T00:30:16.594Z,7.15
2023-04-14T00:33:23.224Z,7.07
2023-04-14T00:36:32.468Z,7.01
2023-04-14T00:39:40.274Z,6.86
2023-04-14T00:42:47.302Z,6.87
2023-04-14T00:45:54.968Z,6.88
2023-04-14T00:49:02.072Z,6.88
2023-04-14T00:52:12.402Z,6.96
2023-04-14T00:55:21.447Z,6.98
2023-04-14T00:58:29.480Z,6.98
2023-04-14T01:01:37.468Z,7.02
2023-04-14T01:04:53.411Z,7.05
2023-04-14T01:08:04.274Z,7.07
2023-04-14T01:11:26.416Z,7.11
2023-04-14T01:14:46.911Z,7.16
2023-04-14T01:18:08.337Z,7.17
2023-04-14T01:21:22.002Z,7.24
2023-04-14T01:25:03.649Z,7.29
2023-04-14T01:28:34.310Z,7.41
2023-04-14T01:31:51.311Z,7.45
2023-04-14T01:35:08.162Z,7.52
2023-04-14T01:38:27.636Z,7.49
2023-04-14T01:41:40.305Z,7.49
2023-04-14T01:44:48.945Z,7.51
2023-04-14T01:47:59.465Z,7.53
2023-04-14T01:51:09.345Z,7.54
2023-04-14T01:54:21.310Z,7.49
2023-04-14T01:57:29.925Z,7.49
2023-04-14T02:00:39.340Z,7.29
2023-04-14T02:03:52.219Z,7.55
2023-04-14T02:07:06.095Z,7.56
2023-04-14T02:10:15.134Z,7.43
2023-04-14T02:13:25.927Z,7.51
2023-04-14T02:16:34.074Z,7.44
2023-04-14T02:19:47.222Z,7.46
2023-04-14T02:22:53.054Z,7.49
2023-04-14T02:26:08.819Z,7.47
2023-04-14T02:29:19.294Z,7.49
2023-04-14T02:32:30.646Z,7.51
2023-04-14T02:35:47.279Z,7.52
2023-04-14T02:39:01.168Z,7.55
2023-04-14T02:42:16.999Z,7.60
2023-04-14T02:45:30.748Z,7.59
2023-04-14T02:48:43.208Z,7.56
2023-04-14T02:51:57.189Z,7.51
2023-04-14T02:55:06.973Z,7.48
2023-04-14T02:58:13.985Z,7.42
2023-04-14T03:01:22.689Z,7.38
2023-04-14T03:04:35.686Z,7.34
2023-04-14T03:07:54.210Z,7.31
2023-04-14T03:11:04.254Z,7.22
2023-04-14T03:14:11.504Z,7.15
2023-04-14T03:17:21.500Z,7.10
2023-04-14T03:20:30.700Z,7.07
2023-04-14T03:23:42.875Z,7.02
2023-04-14T03:26:52.437Z,6.99
2023-04-14T03:30:07.272Z,7.05
2023-04-14T03:33:22.044Z,7.06
2023-04-14T03:36:32.502Z,7.05
2023-04-14T03:39:43.661Z,7.07
2023-04-14T03:42:53.845Z,7.06
2023-04-14T03:46:00.889Z,7.04
2023-04-14T03:49:16.317Z,7.00
2023-04-14T03:52:28.151Z,6.88
2023-04-14T03:55:41.712Z,6.81
2023-04-14T03:58:51.348Z,6.81
2023-04-14T04:02:00.948Z,6.77
2023-04-14T04:05:10.603Z,6.75
2023-04-14T04:08:18.806Z,6.71
2023-04-14T04:11:32.029Z,6.72
2023-04-14T04:14:42.516Z,6.73
2023-04-14T04:17:54.363Z,6.74
2023-04-14T04:21:04.525Z,6.79
2023-04-14T04:24:11.872Z,6.81
2023-04-14T04:27:28.075Z,6.85
2023-04-14T04:30:43.766Z,6.97
2023-04-14T04:33:52.049Z,7.04
2023-04-14T04:36:59.910Z,7.11
2023-04-14T04:40:07.611Z,7.19
2023-04-14T04:43:16.309Z,7.24
2023-04-14T04:46:47.533Z,7.28
2023-04-14T04:49:54.648Z,7.25
2023-04-14T04:53:04.113Z,7.22
2023-04-14T04:56:10.927Z,7.14
2023-04-14T04:59:20.210Z,7.30
2023-04-14T05:02:26.063Z,7.36
2023-04-14T05:05:32.689Z,7.44
2023-04-14T05:08:38.508Z,7.57
2023-04-14T05:11:44.885Z,7.58
2023-04-14T05:14:53.209Z,7.57
2023-04-14T05:18:00.190Z,7.48
2023-04-14T05:21:06.898Z,7.46
2023-04-14T05:24:13.223Z,7.46
2023-04-14T05:27:18.680Z,7.45
2023-04-14T05:30:28.230Z,7.49
2023-04-14T05:33:33.764Z,7.57
2023-04-14T05:36:40.140Z,7.67
2023-04-14T05:39:45.902Z,7.76
2023-04-14T05:42:52.451Z,7.87
2023-04-14T05:46:01.882Z,7.98
2023-04-14T05:49:08.575Z,8.03
2023-04-14T05:52:14.113Z,7.99
2023-04-14T05:55:21.503Z,8.00
2023-04-14T05:58:27.065Z,7.94
2023-04-14T06:01:36.414Z,7.93
2023-04-14T06:04:41.975Z,7.90
2023-04-14T06:07:48.722Z,7.91
2023-04-14T06:10:54.207Z,7.96
2023-04-14T06:14:02.292Z,8.16
2023-04-14T06:17:10.887Z,8.29
2023-04-14T06:20:18.855Z,8.40
2023-04-14T06:23:26.924Z,8.00
2023-04-14T06:26:33.341Z,8.48
2023-04-14T06:29:38.884Z,8.57
2023-04-14T06:32:48.941Z,8.67
2023-04-14T06:35:55.173Z,8.77
2023-04-14T06:39:01.921Z,8.90
2023-04-14T06:42:07.643Z,9.04
2023-04-14T06:45:16.735Z,9.18
2023-04-14T06:48:24.952Z,9.31
2023-04-14T06:51:31.426Z,9.15
2023-04-14T06:54:37.068Z,9.12
2023-04-14T06:57:43.549Z,9.07
2023-04-14T07:00:49.037Z,9.10
2023-04-14T07:03:58.289Z,9.10
2023-04-14T07:07:04.416Z,9.19
2023-04-14T07:10:12.955Z,9.25
2023-04-14T07:13:18.457Z,9.40
2023-04-14T07:16:25.043Z,9.52
2023-04-14T07:19:33.346Z,9.60
2023-04-14T07:22:39.789Z,9.67
2023-04-14T07:25:45.332Z,9.71
2023-04-14T07:28:51.966Z,9.66
2023-04-14T07:31:57.701Z,9.67
2023-04-14T07:35:08.948Z,9.73
2023-04-14T07:38:14.494Z,9.77
2023-04-14T07:41:21.814Z,9.91
2023-04-14T07:44:27.603Z,10.02
2023-04-14T07:47:34.216Z,10.12
2023-04-14T07:50:42.621Z,10.16
2023-04-14T07:53:49.220Z,10.15
2023-04-14T07:56:55.140Z,10.20
2023-04-14T08:00:01.467Z,10.28
2023-04-14T08:03:07.579Z,10.37
2023-04-14T08:06:17.111Z,10.50
2023-04-14T08:09:22.578Z,10.59
2023-04-14T08:12:29.121Z,10.74
2023-04-14T08:15:35.327Z,10.86
2023-04-14T08:18:43.785Z,10.89
2023-04-14T08:21:52.422Z,10.92
2023-04-14T08:24:58.766Z,10.98
2023-04-14T08:28:04.300Z,11.03
2023-04-14T08:31:10.980Z,11.11
2023-04-14T08:34:20.976Z,11.20
2023-04-14T08:37:37.848Z,11.28
2023-04-14T08:40:46.646Z,11.35
2023-04-14T08:43:53.066Z,11.40
2023-04-14T08:46:59.840Z,11.44
2023-04-14T08:50:10.339Z,11.51
2023-04-14T08:53:24.704Z,11.60
2023-04-14T08:56:38.402Z,11.63
2023-04-14T08:59:45.399Z,11.65
2023-04-14T09:02:55.956Z,11.71
2023-04-14T09:06:04.110Z,11.77
2023-04-14T09:09:14.332Z,11.90
2023-04-14T09:12:21.174Z,12.01
2023-04-14T09:15:29.347Z,12.19
2023-04-14T09:18:36.478Z,12.45
2023-04-14T09:21:53.546Z,12.72
2023-04-14T09:25:03.714Z,12.89
2023-04-14T09:28:11.021Z,13.06
2023-04-14T09:31:17.071Z,12.50
2023-04-14T09:34:25.150Z,13.17
2023-04-14T09:37:32.325Z,13.33
2023-04-14T09:40:42.064Z,13.42
2023-04-14T09:43:48.126Z,13.49
2023-04-14T09:47:03.193Z,13.60
2023-04-14T09:50:10.726Z,13.69
2023-04-14T09:53:17.594Z,13.76
2023-04-14T09:56:30.888Z,13.67
2023-04-14T09:59:39.903Z,13.94
2023-04-14T10:02:52.290Z,14.06
2023-04-14T10:05:58.729Z,14.20
2023-04-14T10:09:06.167Z,14.39
2023-04-14T10:12:18.796Z,14.52
2023-04-14T10:15:24.963Z,14.50
2023-04-14T10:18:31.446Z,14.59
2023-04-14T10:21:38.023Z,14.77
2023-04-14T10:24:44.705Z,14.78
2023-04-14T10:27:54.413Z,14.96
2023-04-14T10:31:04.839Z,15.09
2023-04-14T10:34:12.273Z,15.21
2023-04-14T10:37:19.997Z,15.39
2023-04-14T10:40:25.881Z,15.50
2023-04-14T10:43:35.628Z,15.60
2023-04-14T10:46:47.179Z,15.59
2023-04-14T10:49:53.825Z,15.63
2023-04-14T10:53:00.706Z,15.58
2023-04-14T10:56:09.071Z,15.49
2023-04-14T10:59:17.882Z,15.47
2023-04-14T11:02:30.383Z,15.42
2023-04-14T11:05:37.887Z,15.42
2023-04-14T11:08:53.975Z,15.43
2023-04-14T11:12:05.348Z,15.45
2023-04-14T11:15:15.478Z,15.48
2023-04-14T11:18:35.172Z,15.51
2023-04-14T11:21:53.999Z,15.38
2023-04-14T11:24:59.582Z,15.17
2023-04-14T11:28:06.596Z,14.99
2023-04-14T11:31:21.061Z,14.99
2023-04-14T11:34:30.200Z,15.00
2023-04-14T11:37:39.196Z,15.00
2023-04-14T11:40:51.524Z,15.20
2023-04-14T11:43:57.762Z,15.30
2023-04-14T11:47:08.586Z,15.42
2023-04-14T11:50:14.750Z,15.49
2023-04-14T11:53:23.182Z,15.61
2023-04-14T11:56:29.121Z,15.72
2023-04-14T11:59:45.791Z,15.91
2023-04-14T12:02:55.058Z,16.07
2023-04-14T12:06:03.613Z,16.07
2023-04-14T12:09:12.765Z,16.18
2023-04-14T12:12:22.961Z,16.16
2023-04-14T12:15:29.570Z,16.17
2023-04-14T12:18:39.862Z,16.16
2023-04-14T12:21:45.978Z,16.15
2023-04-14T12:24:52.510Z,16.23
2023-04-14T12:27:58.634Z,16.32
2023-04-14T12:31:07.778Z,16.42
2023-04-14T12:34:20.238Z,16.45
2023-04-14T12:37:29.553Z,16.49
2023-04-14T12:40:42.911Z,16.58
2023-04-14T12:43:50.433Z,16.62
2023-04-14T12:46:56.943Z,16.50
2023-04-14T12:50:28.435Z,16.36
2023-04-14T12:53:34.765Z,16.28
2023-04-14T12:56:48.175Z,16.02
2023-04-14T13:00:05.607Z,15.90
2023-04-14T13:03:12.386Z,16.11
2023-04-14T13:06:23.004Z,16.06
2023-04-14T13:09:30.276Z,16.17
2023-04-14T13:12:36.185Z,16.17
2023-04-14T13:16:13.312Z,16.21
2023-04-14T13:19:08.758Z,16.34
2023-04-14T13:22:18.078Z,16.40
2023-04-14T13:25:23.637Z,16.23
2023-04-14T13:28:30.654Z,16.06
2023-04-14T13:31:36.365Z,15.86
2023-04-14T13:34:44.135Z,15.73
2023-04-14T13:37:52.672Z,15.78
2023-04-14T13:40:59.024Z,15.76
2023-04-14T13:44:04.802Z,15.75
2023-04-14T13:47:12.945Z,15.77
2023-04-14T13:50:19.123Z,15.73
2023-04-14T13:53:29.063Z,15.71
2023-04-14T13:56:34.747Z,15.61
2023-04-14T13:59:41.144Z,15.51
2023-04-14T14:02:47.670Z,15.47
2023-04-14T14:05:54.353Z,15.38
2023-04-14T14:09:08.154Z,15.28
2023-04-14T14:12:17.326Z,15.21
2023-04-14T14:15:22.858Z,15.13
2023-04-14T14:18:29.274Z,15.13
2023-04-14T14:21:34.796Z,15.09
2023-04-14T14:24:44.106Z,15.08
2023-04-14T14:27:50.462Z,15.16
2023-04-14T14:30:57.085Z,15.22
2023-04-14T14:34:02.811Z,15.18
2023-04-14T14:37:09.485Z,15.28
2023-04-14T14:40:18.332Z,15.23
2023-04-14T14:43:24.680Z,15.28
2023-04-14T14:46:30.293Z,15.32
2023-04-14T14:49:41.115Z,15.38
2023-04-14T14:52:48.999Z,15.40
2023-04-14T14:55:58.101Z,15.34
2023-04-14T14:59:03.599Z,15.17
2023-04-14T15:02:10.073Z,15.04
2023-04-14T15:05:15.633Z,14.96
2023-04-14T15:08:22.090Z,14.85
2023-04-14T15:11:30.949Z,14.76
2023-04-14T15:14:37.383Z,14.62
2023-04-14T15:17:42.905Z,14.54
2023-04-14T15:20:50.822Z,14.48
2023-04-14T15:23:56.648Z,14.38
2023-04-14T15:27:06.185Z,14.34
2023-04-14T15:30:12.999Z,14.14
2023-04-14T15:33:19.369Z,14.20
2023-04-14T15:36:25.238Z,14.10
2023-04-14T15:39:31.826Z,14.06
2023-04-14T15:42:40.130Z,13.96
2023-04-14T15:45:46.483Z,13.96
2023-04-14T15:48:51.993Z,13.97
2023-04-14T15:51:58.681Z,14.00
2023-04-14T15:55:04.241Z,13.95
2023-04-14T15:58:13.414Z,13.84
2023-04-14T16:01:18.943Z,13.80
2023-04-14T16:04:25.801Z,13.78
2023-04-14T16:07:32.642Z,13.76
2023-04-14T16:10:42.972Z,13.75
2023-04-14T16:13:52.775Z,13.65
2023-04-14T16:16:59.149Z,13.56
2023-04-14T16:20:04.848Z,13.53
2023-04-14T16:23:11.843Z,13.46
2023-04-14T16:26:18.742Z,13.41
2023-04-14T16:29:29.004Z,13.40
2023-04-14T16:32:34.589Z,13.36
2023-04-14T16:35:41.318Z,13.34
2023-04-14T16:38:46.851Z,13.31
2023-04-14T16:41:53.239Z,13.21
2023-04-14T16:45:02.034Z,13.11
2023-04-14T16:48:08.533Z,13.03
2023-04-14T16:51:14.559Z,12.97
2023-04-14T16:54:20.887Z,12.90
2023-04-14T16:57:26.536Z,12.82
2023-04-14T17:00:35.913Z,12.73
2023-04-14T17:03:41.621Z,12.69
2023-04-14T17:06:49.441Z,12.68
2023-04-14T17:09:54.911Z,12.64
2023-04-14T17:13:01.239Z,12.60
2023-04-14T17:16:11.404Z,12.58
2023-04-14T17:19:17.765Z,12.57
2023-04-14T17:22:23.250Z,12.55
2023-04-14T17:25:30.814Z,12.54
2023-04-14T17:28:37.550Z,12.53
2023-04-14T17:31:48.331Z,12.51
2023-04-14T17:34:55.148Z,12.52
2023-04-14T17:38:01.647Z,12.45
2023-04-14T17:41:09.078Z,12.43
2023-04-14T17:44:17.098Z,12.39
2023-04-14T17:47:25.694Z,12.34
2023-04-14T17:50:33.923Z,12.28
2023-04-14T17:53:39.588Z,12.19
2023-04-14T17:56:46.214Z,12.09
2023-04-14T17:59:51.815Z,12.00
2023-04-14T18:03:01.915Z,11.94
2023-04-14T18:06:07.929Z,11.87
2023-04-14T18:09:14.390Z,11.86
2023-04-14T18:12:23.027Z,11.82
2023-04-14T18:15:29.479Z,11.77
2023-04-14T18:18:37.909Z,11.71
2023-04-14T18:21:45.149Z,11.60
2023-04-14T18:24:51.227Z,11.51
2023-04-14T18:31:07.080Z,11.39
2023-04-14T18:34:17.058Z,11.32
2023-04-14T18:37:22.745Z,11.29
2023-04-14T18:40:29.768Z,11.26
2023-04-14T18:43:37.257Z,11.26
2023-04-14T18:46:44.238Z,11.24
2023-04-14T18:49:52.535Z,11.20
2023-04-14T18:52:58.893Z,11.21
2023-04-14T18:56:04.905Z,11.20
2023-04-14T18:59:11.606Z,11.22
2023-04-14T19:02:17.503Z,11.22
2023-04-14T19:05:27.697Z,11.20
2023-04-14T19:08:33.648Z,11.13
2023-04-14T19:11:40.346Z,10.83
2023-04-14T19:14:47.268Z,11.03
2023-04-14T19:17:53.757Z,11.00
2023-04-14T19:21:02.143Z,10.92
2023-04-14T19:24:09.181Z,10.91
2023-04-14T19:27:15.096Z,10.84
2023-04-14T19:30:22.146Z,10.81
2023-04-14T19:33:27.914Z,10.77
2023-04-14T19:36:37.763Z,10.74
2023-04-14T19:39:43.338Z,10.74
2023-04-14T19:42:49.690Z,10.76
2023-04-14T19:45:58.288Z,10.72
2023-04-14T19:49:04.601Z,10.62
2023-04-14T19:52:13.501Z,10.60
2023-04-14T19:55:20.417Z,10.53
2023-04-14T19:58:26.962Z,10.46
2023-04-14T20:01:33.981Z,10.46
2023-04-14T20:04:39.906Z,10.43
2023-04-14T20:07:50.130Z,10.46
2023-04-14T20:10:56.889Z,10.44
2023-04-14T20:14:04.027Z,10.48
2023-04-14T20:17:09.842Z,10.45
2023-04-14T20:20:16.839Z,10.50
2023-04-14T20:23:25.444Z,10.52
2023-04-14T20:26:32.503Z,10.59
2023-04-14T20:29:38.085Z,10.60
2023-04-14T20:32:44.482Z,10.55
2023-04-14T20:35:53.684Z,10.52
2023-04-14T20:39:03.282Z,10.44
2023-04-14T20:42:09.608Z,10.38
2023-04-14T20:45:15.963Z,10.32
2023-04-14T20:48:21.828Z,10.25
2023-04-14T20:51:28.301Z,10.26
2023-04-14T20:54:36.783Z,10.26
2023-04-14T20:57:43.245Z,10.24
2023-04-14T21:00:49.539Z,10.28
2023-04-14T21:03:56.483Z,10.33
2023-04-14T21:07:02.227Z,10.35
2023-04-14T21:10:15.563Z,10.40
2023-04-14T21:15:30.902Z,10.45
2023-04-14T21:16:47.564Z,10.44
2023-04-14T21:19:53.277Z,10.48
2023-04-14T21:23:00.406Z,10.46
2023-04-14T21:26:08.753Z,10.48
2023-04-14T21:29:15.150Z,10.49
2023-04-14T21:32:20.987Z,10.51
2023-04-14T21:35:27.440Z,10.49
2023-04-14T21:38:33.157Z,10.46
2023-04-14T21:41:42.598Z,10.36
2023-04-14T21:44:49.442Z,10.39
2023-04-14T21:47:55.742Z,10.36
2023-04-14T21:51:01.834Z,10.37
2023-04-14T21:54:08.221Z,10.39
2023-04-14T21:57:16.752Z,10.40
2023-04-14T22:00:24.289Z,10.39
2023-04-14T22:03:30.269Z,10.40
2023-04-14T22:06:38.421Z,10.42
2023-04-14T22:09:44.348Z,10.40
2023-04-14T22:12:53.957Z,10.35
2023-04-14T22:15:59.409Z,10.30
2023-04-14T22:19:06.621Z,10.24
2023-04-14T22:22:12.435Z,10.15
2023-04-14T22:25:19.915Z,10.07
2023-04-14T22:28:28.251Z,9.97
2023-04-14T22:31:34.652Z,9.90
2023-04-14T22:34:40.245Z,9.78
2023-04-14T22:37:46.565Z,9.74
2023-04-14T22:40:52.788Z,9.63
2023-04-14T22:44:02.280Z,9.60
2023-04-14T22:47:07.845Z,9.58
2023-04-14T22:50:14.805Z,9.58
2023-04-14T22:53:20.247Z,9.55
2023-04-14T22:56:26.955Z,9.66
2023-04-14T22:59:35.265Z,9.73
2023-04-14T23:02:42.552Z,9.75
2023-04-14T23:05:48.676Z,9.73
2023-04-14T23:08:55.398Z,9.75
2023-04-14T23:12:01.557Z,9.77
2023-04-14T23:15:12.027Z,9.79
2023-04-14T23:18:17.753Z,9.80
2023-04-14T23:21:25.148Z,9.78
2023-04-14T23:24:31.045Z,9.76
2023-04-14T23:27:37.392Z,9.75
2023-04-14T23:30:46.007Z,9.75
2023-04-14T23:33:53.138Z,9.76
2023-04-14T23:36:58.652Z,9.76
2023-04-14T23:40:06.405Z,9.72
2023-04-14T23:43:11.880Z,9.70
2023-04-14T23:46:21.984Z,9.65
2023-04-14T23:49:34.039Z,9.56
2023-04-14T23:52:41.672Z,9.57
2023-04-14T23:55:47.920Z,9.54
2023-04-14T23:58:54.293Z,9.48
